Time;durP1;ratioP1;P1;durP2;ratioP2;P2;SDS_P1;SDS_P2;PMS_P1;PMS_P2;Temp;Humidity;BMP_temperature;BMP_pressure;BME280_temperature;BME280_humidity;BME280_pressure;Samples;Min_cycle;Max_cycle;Signal;HPM_P1;HPM_P2
2022/05/12 00:00:01;;;;;;;11.77;2.37;;;11.90;99.90;;;;;;5026841;28;20492;-90
2022/05/12 00:02:28;;;;;;;8.03;2.30;;;11.90;99.90;;;;;;5026869;28;20206;-90
2022/05/12 00:04:56;;;;;;;5.93;2.10;;;11.90;99.90;;;;;;5032011;28;20348;-90
2022/05/12 00:07:23;;;;;;;6.30;2.27;;;12.00;99.90;;;;;;5031441;28;20195;-90
2022/05/12 00:09:49;;;;;;;7.70;2.10;;;12.00;99.90;;;;;;5031606;28;20198;-90
2022/05/12 00:12:16;;;;;;;5.20;2.20;;;12.10;99.90;;;;;;5032572;28;20198;-88
2022/05/12 00:14:43;;;;;;;4.67;1.87;;;12.20;99.90;;;;;;5034745;28;20591;-90
2022/05/12 00:17:11;;;;;;;4.77;2.20;;;12.10;99.90;;;;;;5051741;28;20224;-92
2022/05/12 00:19:38;;;;;;;7.97;2.70;;;12.20;99.90;;;;;;5051774;28;20213;-91
2022/05/12 00:22:05;;;;;;;7.80;2.33;;;12.20;99.90;;;;;;5046242;28;20210;-93
2022/05/12 00:24:32;;;;;;;7.47;2.63;;;12.20;99.90;;;;;;5031331;28;20202;-92
2022/05/12 00:26:59;;;;;;;9.37;2.90;;;12.20;99.90;;;;;;5031872;28;20205;-90
2022/05/12 00:29:26;;;;;;;9.57;3.03;;;12.10;99.90;;;;;;5030814;28;20219;-88
2022/05/12 00:31:53;;;;;;;9.70;2.47;;;12.00;99.90;;;;;;5031995;28;20250;-93
2022/05/12 00:34:22;;;;;;;12.27;2.97;;;12.10;99.90;;;;;;5031363;28;20209;-93
2022/05/12 00:36:50;;;;;;;8.67;2.90;;;12.00;99.90;;;;;;5031101;28;20195;-84
2022/05/12 00:39:17;;;;;;;12.57;2.70;;;12.00;99.90;;;;;;5043391;28;20594;-93
2022/05/12 00:41:44;;;;;;;6.60;2.87;;;12.10;99.90;;;;;;5050471;28;20190;-86
2022/05/12 00:44:13;;;;;;;9.53;2.80;;;12.10;99.90;;;;;;5050641;28;20209;-89
2022/05/12 00:46:42;;;;;;;7.50;2.33;;;12.10;99.90;;;;;;5050969;28;20218;-91
2022/05/12 00:49:14;;;;;;;6.23;2.73;;;12.00;99.90;;;;;;5051560;28;20209;-92
2022/05/12 00:51:49;;;;;;;9.67;2.80;;;12.00;99.90;;;;;;5037541;28;20225;-92
2022/05/12 00:54:20;;;;;;;12.20;3.27;;;12.00;99.90;;;;;;5030535;28;20585;-92
2022/05/12 00:56:49;;;;;;;8.23;3.00;;;12.10;99.90;;;;;;5031149;28;20218;-91
2022/05/12 00:59:23;;;;;;;11.67;3.10;;;12.10;99.90;;;;;;5031518;28;20207;-91
2022/05/12 01:01:50;;;;;;;11.53;4.37;;;12.20;99.90;;;;;;5051216;28;20190;-91
2022/05/12 01:04:19;;;;;;;9.17;4.30;;;12.10;99.90;;;;;;5051123;28;20205;-92
2022/05/12 01:06:47;;;;;;;15.60;4.33;;;12.20;99.90;;;;;;5052056;28;20295;-92
2022/05/12 01:09:14;;;;;;;13.13;4.60;;;12.10;99.90;;;;;;5053453;28;20605;-93
2022/05/12 01:11:42;;;;;;;12.57;4.17;;;12.10;99.90;;;;;;5053338;28;20209;-90
2022/05/12 01:14:10;;;;;;;11.60;4.57;;;12.10;99.90;;;;;;5054092;28;20797;-90
2022/05/12 01:16:42;;;;;;;8.37;4.97;;;12.10;99.90;;;;;;5049692;28;20230;-90
2022/05/12 01:19:13;;;;;;;7.30;3.90;;;12.10;99.90;;;;;;5034554;28;20621;-91
2022/05/12 01:21:42;;;;;;;13.60;5.27;;;12.10;99.90;;;;;;5033669;28;20195;-91
2022/05/12 01:24:11;;;;;;;11.10;4.87;;;12.20;99.90;;;;;;5033679;28;20210;-93
2022/05/12 01:26:39;;;;;;;12.97;5.43;;;12.30;99.90;;;;;;5033199;28;20316;-91
2022/05/12 01:29:06;;;;;;;17.87;4.73;;;12.30;99.90;;;;;;5032857;28;20591;-87
2022/05/12 01:31:34;;;;;;;14.23;4.77;;;12.30;99.90;;;;;;5032289;28;20725;-87
2022/05/12 01:34:02;;;;;;;9.80;4.20;;;12.30;99.90;;;;;;5028945;28;20198;-93
2022/05/12 01:36:29;;;;;;;9.97;4.20;;;12.30;99.90;;;;;;5032706;28;20587;-91
2022/05/12 01:38:56;;;;;;;10.60;4.17;;;12.40;99.90;;;;;;5033171;28;20190;-90
2022/05/12 01:41:25;;;;;;;8.43;4.57;;;12.30;99.90;;;;;;5032395;28;20614;-88
2022/05/12 01:43:52;;;;;;;7.90;3.90;;;12.40;99.90;;;;;;5033374;28;20214;-91
2022/05/12 01:46:19;;;;;;;9.80;4.13;;;12.40;99.90;;;;;;5033296;28;20234;-91
2022/05/12 01:48:46;;;;;;;11.97;4.83;;;12.30;99.90;;;;;;5033199;28;20194;-88
2022/05/12 01:51:13;;;;;;;11.30;4.70;;;12.30;99.90;;;;;;5039866;28;20202;-86
2022/05/12 01:53:40;;;;;;;15.30;4.70;;;12.30;99.90;;;;;;5052179;28;20202;-88
2022/05/12 01:56:09;;;;;;;15.93;4.63;;;12.40;99.90;;;;;;5052590;28;20194;-88
2022/05/12 01:58:38;;;;;;;7.77;3.93;;;12.40;99.90;;;;;;5041343;28;20210;-93
2022/05/12 02:01:05;;;;;;;18.80;6.97;;;12.40;99.90;;;;;;5032754;28;20199;-92
2022/05/12 02:03:32;;;;;;;17.60;4.70;;;12.30;99.90;;;;;;5032739;28;20203;-85
2022/05/12 02:06:00;;;;;;;14.40;5.70;;;12.30;99.90;;;;;;5033581;28;20238;-92
2022/05/12 02:08:27;;;;;;;14.03;5.80;;;12.30;99.90;;;;;;5032239;28;20199;-90
2022/05/12 02:10:54;;;;;;;14.80;5.33;;;12.30;99.90;;;;;;5032921;28;20210;-89
2022/05/12 02:13:25;;;;;;;12.60;5.13;;;12.30;99.90;;;;;;5032597;28;20606;-85
2022/05/12 02:15:56;;;;;;;8.97;4.33;;;12.30;99.90;;;;;;5029841;28;20300;-92
2022/05/12 02:18:23;;;;;;;8.97;3.80;;;12.30;99.90;;;;;;5027448;28;20634;-91
2022/05/12 02:20:51;;;;;;;8.50;3.63;;;12.20;99.90;;;;;;5036674;28;20245;-91
2022/05/12 02:23:18;;;;;;;7.30;3.23;;;12.20;99.90;;;;;;5036239;28;20489;-86
2022/05/12 02:25:45;;;;;;;6.23;3.13;;;12.30;99.90;;;;;;5029313;28;20227;-89
2022/05/12 02:28:13;;;;;;;9.20;3.37;;;12.30;99.90;;;;;;5032127;28;20218;-87
2022/05/12 02:30:40;;;;;;;9.57;3.40;;;12.20;99.90;;;;;;5032222;28;20217;-85
2022/05/12 02:33:09;;;;;;;9.03;2.83;;;12.20;99.90;;;;;;5032131;28;20244;-88
2022/05/12 02:35:37;;;;;;;8.47;3.13;;;12.20;99.90;;;;;;5045605;28;20210;-88
2022/05/12 02:38:05;;;;;;;9.17;3.70;;;12.20;99.90;;;;;;5052363;28;20201;-85
2022/05/12 02:40:31;;;;;;;13.20;3.73;;;12.10;99.90;;;;;;5052169;28;20593;-87
2022/05/12 02:42:59;;;;;;;7.97;3.13;;;12.10;99.90;;;;;;5051713;28;20648;-90
2022/05/12 02:45:26;;;;;;;12.37;3.83;;;12.20;99.90;;;;;;5038308;28;20206;-87
2022/05/12 02:47:53;;;;;;;8.63;4.10;;;12.10;99.90;;;;;;5031779;28;20198;-90
2022/05/12 02:50:22;;;;;;;8.67;5.03;;;12.10;99.90;;;;;;5030679;28;20229;-94
2022/05/12 02:52:49;;;;;;;14.77;4.67;;;12.10;99.90;;;;;;5031061;28;20908;-88
2022/05/12 02:55:16;;;;;;;10.47;4.60;;;12.10;99.90;;;;;;5030779;28;20587;-90
2022/05/12 02:57:43;;;;;;;9.67;4.40;;;12.10;99.90;;;;;;5031422;28;20286;-88
2022/05/12 03:00:16;;;;;;;8.67;4.20;;;12.10;99.90;;;;;;5031186;28;20209;-85
2022/05/12 03:02:42;;;;;;;14.83;3.97;;;12.10;99.90;;;;;;5030958;28;20590;-90
2022/05/12 03:05:10;;;;;;;14.30;3.63;;;12.10;99.90;;;;;;5030348;28;20210;-90
2022/05/12 03:07:38;;;;;;;8.40;3.17;;;12.10;99.90;;;;;;5029207;28;20233;-91
2022/05/12 03:10:05;;;;;;;7.57;3.13;;;12.00;99.90;;;;;;5032249;28;20309;-93
2022/05/12 03:12:32;;;;;;;9.90;3.97;;;12.00;99.90;;;;;;5031731;28;20210;-86
2022/05/12 03:15:00;;;;;;;14.50;3.60;;;12.00;99.90;;;;;;5031954;28;20554;-89
2022/05/12 03:17:27;;;;;;;10.60;4.20;;;12.00;99.90;;;;;;5039529;28;20232;-90
2022/05/12 03:19:54;;;;;;;11.13;4.23;;;11.90;99.90;;;;;;5051676;28;20229;-89
2022/05/12 03:22:21;;;;;;;10.77;4.17;;;11.90;99.90;;;;;;5041062;28;20206;-87
2022/05/12 03:24:49;;;;;;;8.70;3.70;;;11.80;99.90;;;;;;5031112;28;20292;-92
2022/05/12 03:27:16;;;;;;;12.03;4.53;;;11.80;99.90;;;;;;5031887;28;20865;-87
2022/05/12 03:29:43;;;;;;;9.97;3.63;;;11.80;99.90;;;;;;5031364;28;20187;-94
2022/05/12 03:32:12;;;;;;;12.57;4.73;;;11.70;99.90;;;;;;5043498;28;20874;-90
2022/05/12 03:34:39;;;;;;;13.80;4.13;;;11.70;99.90;;;;;;5051635;28;20206;-87
2022/05/12 03:37:08;;;;;;;11.17;4.03;;;11.70;99.90;;;;;;5051272;28;20843;-88
2022/05/12 03:39:37;;;;;;;9.87;3.73;;;11.70;99.90;;;;;;5033938;28;20206;-89
2022/05/12 03:42:08;;;;;;;14.67;4.17;;;11.60;99.90;;;;;;5031291;28;20207;-90
2022/05/12 03:45:01;;;;;;;14.63;4.73;;;11.60;99.90;;;;;;5031746;28;20261;-88
2022/05/12 03:47:32;;;;;;;10.23;3.50;;;11.60;99.90;;;;;;5031333;28;20229;-88
2022/05/12 03:50:03;;;;;;;11.00;3.40;;;11.70;99.90;;;;;;5031015;28;20265;-92
2022/05/12 03:52:30;;;;;;;11.77;3.87;;;11.80;99.90;;;;;;5031794;28;20283;-91
2022/05/12 03:54:56;;;;;;;9.73;3.77;;;11.80;99.90;;;;;;5030850;28;20294;-92
2022/05/12 03:57:27;;;;;;;12.33;3.90;;;11.80;99.90;;;;;;5031641;28;20210;-88
2022/05/12 03:59:54;;;;;;;8.30;3.67;;;11.80;99.90;;;;;;5043584;28;20209;-87
2022/05/12 04:02:22;;;;;;;11.77;4.10;;;11.80;99.90;;;;;;5050768;28;20303;-93
2022/05/12 04:04:50;;;;;;;10.83;4.40;;;11.80;99.90;;;;;;5051204;28;20198;-85
2022/05/12 04:07:19;;;;;;;15.07;5.30;;;11.80;99.90;;;;;;5050267;28;20228;-92
2022/05/12 04:09:46;;;;;;;9.83;4.70;;;11.80;99.90;;;;;;5051311;28;20206;-87
2022/05/12 04:12:13;;;;;;;13.30;4.73;;;11.80;99.90;;;;;;5050347;28;20216;-87
2022/05/12 04:14:42;;;;;;;9.83;3.50;;;11.80;99.90;;;;;;5049322;28;20582;-91
2022/05/12 04:17:13;;;;;;;10.90;3.40;;;11.80;99.90;;;;;;5050884;28;20774;-89
2022/05/12 04:19:40;;;;;;;14.63;3.73;;;11.80;99.90;;;;;;5051812;28;20202;-89
2022/05/12 04:22:07;;;;;;;10.20;3.97;;;11.80;99.90;;;;;;5044369;28;20210;-87
2022/05/12 04:24:34;;;;;;;8.33;3.37;;;11.90;99.90;;;;;;5030673;28;20206;-89
2022/05/12 04:27:01;;;;;;;9.37;2.97;;;11.90;99.90;;;;;;5030954;28;20233;-90
2022/05/12 04:29:28;;;;;;;8.10;3.00;;;11.90;99.90;;;;;;5030353;28;20245;-86
2022/05/12 04:31:57;;;;;;;8.60;2.90;;;11.90;99.90;;;;;;5034942;28;20907;-93
2022/05/12 04:37:08;;;;;;;10.60;2.77;;;12.00;99.90;;;;;;5031105;28;20264;-92
2022/05/12 04:39:34;;;;;;;8.93;3.20;;;12.00;99.90;;;;;;5041163;28;20663;-86
2022/05/12 04:42:01;;;;;;;8.60;2.93;;;12.00;99.90;;;;;;5051432;28;20208;-92
2022/05/12 04:44:28;;;;;;;12.40;2.87;;;12.10;99.90;;;;;;5054461;28;20213;-86
2022/05/12 04:46:56;;;;;;;13.40;3.63;;;12.00;99.90;;;;;;5055769;28;20221;-93
2022/05/12 04:49:26;;;;;;;8.30;2.50;;;12.10;99.90;;;;;;5055601;28;20884;-92
2022/05/12 04:51:54;;;;;;;7.23;2.73;;;12.10;99.90;;;;;;5055483;28;20313;-90
2022/05/12 04:54:21;;;;;;;16.17;3.23;;;12.10;99.90;;;;;;5054981;28;20216;-88
2022/05/12 04:56:48;;;;;;;7.33;3.03;;;12.20;99.90;;;;;;5054818;28;20198;-83
2022/05/12 04:59:15;;;;;;;9.30;2.97;;;12.20;99.90;;;;;;5055445;28;20206;-92
2022/05/12 05:01:41;;;;;;;10.97;2.30;;;12.20;99.90;;;;;;5054206;28;20212;-87
2022/05/12 05:04:10;;;;;;;11.43;2.27;;;12.20;99.90;;;;;;5055012;28;20209;-91
2022/05/12 05:06:37;;;;;;;9.80;3.00;;;12.30;99.90;;;;;;5054684;28;20225;-89
2022/05/12 05:09:05;;;;;;;12.07;3.37;;;12.20;99.90;;;;;;5043939;28;20305;-85
2022/05/12 05:11:36;;;;;;;9.90;2.60;;;12.30;99.90;;;;;;5035059;28;20234;-87
2022/05/12 05:14:03;;;;;;;9.70;2.57;;;12.40;99.90;;;;;;5034535;28;20207;-86
2022/05/12 05:16:30;;;;;;;6.33;2.40;;;12.30;99.90;;;;;;5039586;28;20314;-93
2022/05/12 05:18:57;;;;;;;7.83;3.20;;;12.40;99.90;;;;;;5041701;28;20202;-87
2022/05/12 05:21:25;;;;;;;9.63;2.93;;;12.40;99.90;;;;;;5040557;28;20218;-86
2022/05/12 05:23:52;;;;;;;7.80;3.03;;;12.40;99.90;;;;;;5039594;28;20293;-82
2022/05/12 05:26:19;;;;;;;8.07;2.83;;;12.40;99.90;;;;;;5040249;28;20217;-90
2022/05/12 05:28:46;;;;;;;9.50;3.60;;;12.40;99.90;;;;;;5038221;28;20216;-86
2022/05/12 05:31:13;;;;;;;9.47;2.43;;;12.50;99.90;;;;;;5035456;28;20209;-87
2022/05/12 05:33:39;;;;;;;7.60;2.50;;;12.60;99.90;;;;;;5031865;28;20264;-91
2022/05/12 05:36:07;;;;;;;9.60;2.80;;;12.60;99.90;;;;;;5029678;28;20210;-88
2022/05/12 05:38:35;;;;;;;6.80;2.37;;;12.70;99.90;;;;;;5028458;28;20249;-89
2022/05/12 05:41:02;;;;;;;6.60;2.17;;;12.70;99.90;;;;;;5047744;28;20214;-91
2022/05/12 05:43:28;;;;;;;17.10;4.17;;;12.80;99.90;;;;;;5054493;28;20198;-91
2022/05/12 05:45:55;;;;;;;6.57;2.07;;;12.90;99.90;;;;;;5052810;28;20202;-93
2022/05/12 05:48:22;;;;;;;10.00;2.70;;;13.10;99.90;;;;;;5037695;28;20242;-91
2022/05/12 05:53:37;;;;;;;7.33;2.17;;;13.60;99.90;;;;;;4992417;28;20220;-92
2022/05/12 05:56:07;;;;;;;8.67;2.50;;;14.00;99.90;;;;;;5033402;28;20206;-92
2022/05/12 05:58:34;;;;;;;6.10;1.40;;;14.40;99.90;;;;;;5042449;28;20217;-91
2022/05/12 06:01:01;;;;;;;6.73;2.27;;;14.70;99.90;;;;;;5053199;28;20201;-88
2022/05/12 06:03:28;;;;;;;5.60;1.73;;;15.10;99.90;;;;;;5053343;28;20255;-93
2022/05/12 06:05:56;;;;;;;6.70;1.97;;;15.40;99.90;;;;;;5052466;28;20259;-91
2022/05/12 06:08:23;;;;;;;6.40;2.03;;;15.80;99.90;;;;;;5035872;28;20221;-93
2022/05/12 06:10:52;;;;;;;8.40;2.17;;;16.10;99.90;;;;;;5036191;28;20232;-86
2022/05/12 06:16:57;;;;;;;6.03;1.73;;;16.60;99.90;;;;;;4961095;28;20239;-89
2022/05/12 06:19:24;;;;;;;5.97;2.20;;;16.90;99.90;;;;;;5032925;28;20518;-92
2022/05/12 06:21:51;;;;;;;9.20;2.40;;;17.10;99.90;;;;;;5032435;28;20195;-87
2022/05/12 06:24:18;;;;;;;10.45;2.45;;;17.20;99.90;;;;;;5032607;28;20198;-88
2022/05/12 06:26:46;;;;;;;9.40;1.95;;;17.40;99.90;;;;;;5032182;28;20194;-89
2022/05/12 06:29:13;;;;;;;5.18;1.88;;;17.40;99.90;;;;;;5031968;28;20209;-90
2022/05/12 06:31:41;;;;;;;6.03;1.88;;;17.60;99.90;;;;;;5035948;28;20233;-90
2022/05/12 06:34:08;;;;;;;5.28;1.75;;;17.80;99.90;;;;;;5052040;28;20232;-84
2022/05/12 06:36:34;;;;;;;6.43;2.05;;;18.20;99.90;;;;;;5049605;28;20198;-85
2022/05/12 06:39:01;;;;;;;5.95;1.92;;;18.40;99.90;;;;;;5050896;28;20214;-88
2022/05/12 06:41:30;;;;;;;7.50;1.98;;;18.50;99.90;;;;;;5051549;28;20212;-86
2022/05/12 06:43:58;;;;;;;6.82;1.77;;;18.40;99.90;;;;;;5049865;28;20205;-89
2022/05/12 06:46:26;;;;;;;7.80;2.00;;;18.40;99.90;;;;;;5051063;28;20263;-87
2022/05/12 06:48:53;;;;;;;3.53;1.63;;;18.30;99.90;;;;;;5038733;28;20226;-87
2022/05/12 06:51:21;;;;;;;4.53;2.17;;;18.40;99.90;;;;;;5031641;28;20201;-85
2022/05/12 06:53:48;;;;;;;4.97;1.75;;;18.50;99.90;;;;;;5031322;28;20206;-86
2022/05/12 06:56:15;;;;;;;6.25;1.38;;;18.60;99.90;;;;;;5030847;28;20662;-85
2022/05/12 06:58:42;;;;;;;4.05;1.50;;;18.80;99.90;;;;;;5030399;28;20248;-88
2022/05/12 07:01:11;;;;;;;5.22;1.73;;;18.90;99.90;;;;;;5030804;28;20218;-89
2022/05/12 07:03:38;;;;;;;3.55;1.50;;;19.10;99.90;;;;;;5029496;28;20234;-82
2022/05/12 07:06:06;;;;;;;6.28;1.60;;;19.30;99.90;;;;;;5029829;28;20994;-85
2022/05/12 07:08:33;;;;;;;5.97;1.77;;;19.50;99.90;;;;;;5030733;28;20261;-85
2022/05/12 07:11:01;;;;;;;4.22;1.60;;;19.40;99.90;;;;;;5029788;28;20883;-86
2022/05/12 07:13:27;;;;;;;3.95;1.40;;;19.50;99.90;;;;;;5031033;28;20222;-86
2022/05/12 07:15:54;;;;;;;4.95;1.83;;;19.60;99.90;;;;;;5029776;28;20237;-87
2022/05/12 07:18:22;;;;;;;3.15;1.40;;;19.80;99.90;;;;;;5030983;28;20495;-86
2022/05/12 07:29:05;;;;;;;6.70;1.70;;;20.70;99.90;;;;;;5039297;28;20523;-86
2022/05/12 07:31:33;;;;;;;3.92;1.83;;;20.90;99.90;;;;;;5046516;28;20206;-86
2022/05/12 07:34:01;;;;;;;3.92;1.70;;;21.20;99.90;;;;;;5048090;28;20190;-89
2022/05/12 07:36:33;;;;;;;3.90;1.42;;;21.40;99.90;;;;;;5035221;28;20242;-89
2022/05/12 07:39:01;;;;;;;4.05;1.60;;;21.50;99.90;;;;;;5029866;28;20280;-87
2022/05/12 07:41:28;;;;;;;4.30;1.63;;;21.70;99.90;;;;;;5030555;28;20234;-88
2022/05/12 07:43:57;;;;;;;3.67;1.33;;;21.90;99.90;;;;;;5030356;28;20214;-90
2022/05/12 07:46:26;;;;;;;4.72;1.52;;;22.00;99.90;;;;;;5028365;28;20305;-87
2022/05/12 07:48:53;;;;;;;6.32;1.75;;;22.00;99.90;;;;;;5029887;28;20621;-87
2022/05/12 07:51:21;;;;;;;7.50;1.75;;;21.90;99.90;;;;;;5029647;28;20206;-86
2022/05/12 07:53:49;;;;;;;4.70;1.40;;;22.00;99.90;;;;;;5041186;28;20208;-87
2022/05/12 07:56:18;;;;;;;4.40;1.42;;;22.20;99.90;;;;;;5049573;28;20206;-86
2022/05/12 07:58:46;;;;;;;5.28;1.25;;;22.30;99.90;;;;;;5015290;28;20260;-86
2022/05/12 08:01:14;;;;;;;4.13;1.27;;;22.50;99.90;;;;;;5030994;28;20217;-86
2022/05/12 08:03:41;;;;;;;4.22;1.15;;;22.70;99.90;;;;;;5029995;28;20616;-86
2022/05/12 08:06:09;;;;;;;3.85;1.00;;;22.90;99.90;;;;;;5028760;28;20206;-85
2022/05/12 08:08:37;;;;;;;4.85;1.33;;;23.20;99.90;;;;;;5028625;28;20673;-87
2022/05/12 08:11:06;;;;;;;5.65;1.58;;;23.30;99.90;;;;;;5027463;28;20202;-84
2022/05/12 08:13:33;;;;;;;3.03;1.40;;;23.40;99.90;;;;;;5027329;28;20194;-85
2022/05/12 08:16:01;;;;;;;3.50;1.42;;;23.40;99.90;;;;;;5029412;28;20537;-87
2022/05/12 08:18:28;;;;;;;3.58;1.35;;;23.40;99.90;;;;;;5030383;28;20216;-84
2022/05/12 08:20:56;;;;;;;3.08;1.63;;;23.50;99.90;;;;;;5031031;28;20598;-86
2022/05/12 08:23:23;;;;;;;3.58;1.50;;;23.50;99.90;;;;;;5031981;28;20210;-86
2022/05/12 08:25:52;;;;;;;5.35;1.40;;;23.40;99.90;;;;;;5032393;28;20225;-87
2022/05/12 08:28:22;;;;;;;6.25;2.35;;;23.70;99.90;;;;;;5051773;28;20225;-87
2022/05/12 08:30:50;;;;;;;5.57;1.60;;;23.80;99.90;;;;;;5051107;28;20206;-86
2022/05/12 08:33:18;;;;;;;5.57;2.42;;;24.10;99.90;;;;;;5052310;28;20238;-87
2022/05/12 08:35:45;;;;;;;5.55;1.80;;;23.90;99.90;;;;;;5052322;28;20191;-91
2022/05/12 08:38:14;;;;;;;3.97;1.50;;;24.10;99.90;;;;;;5052457;28;20198;-88
2022/05/12 08:40:49;;;;;;;5.97;1.52;;;24.40;99.90;;;;;;5035201;28;20214;-86
2022/05/12 08:43:23;;;;;;;4.32;1.55;;;24.50;99.90;;;;;;5031218;28;20209;-88
2022/05/12 08:45:50;;;;;;;3.38;1.35;;;24.60;99.90;;;;;;5033205;28;20206;-86
2022/05/12 08:48:18;;;;;;;3.15;1.30;;;24.60;99.90;;;;;;5032379;28;20528;-86
2022/05/12 08:50:52;;;;;;;5.63;1.42;;;24.70;99.90;;;;;;5032616;28;20202;-84
2022/05/12 08:53:23;;;;;;;4.13;1.83;;;24.70;99.90;;;;;;5032013;28;20537;-86
2022/05/12 08:55:52;;;;;;;6.97;1.75;;;24.60;99.90;;;;;;5032892;28;20221;-89
2022/05/12 08:58:25;;;;;;;5.78;1.67;;;24.70;99.90;;;;;;5033087;28;20206;-89
2022/05/12 09:01:00;;;;;;;3.83;1.30;;;24.80;99.90;;;;;;5032336;28;20213;-87
2022/05/12 09:03:39;;;;;;;4.25;1.67;;;24.80;99.90;;;;;;5032704;28;20218;-88
2022/05/12 09:06:14;;;;;;;6.50;2.10;;;24.70;99.90;;;;;;5031095;28;20466;-88
2022/05/12 09:08:54;;;;;;;7.35;1.95;;;24.70;99.90;;;;;;5034058;28;20214;-88
2022/05/12 09:11:25;;;;;;;4.32;1.65;;;24.80;99.90;;;;;;5049096;28;20194;-88
2022/05/12 09:13:55;;;;;;;5.03;1.65;;;24.60;99.90;;;;;;5048254;28;20203;-89
2022/05/12 09:16:25;;;;;;;5.88;1.73;;;24.70;99.90;;;;;;5034025;28;20494;-88
2022/05/12 09:18:53;;;;;;;3.78;1.60;;;24.60;99.90;;;;;;5034555;28;20277;-91
2022/05/12 09:21:26;;;;;;;4.05;1.65;;;24.60;99.90;;;;;;5046834;28;20202;-90
2022/05/12 09:23:54;;;;;;;4.82;1.83;;;24.80;99.90;;;;;;5051860;28;20216;-86
2022/05/12 09:26:40;;;;;;;5.28;1.60;;;24.80;99.90;;;;;;5049029;28;20202;-86
2022/05/12 09:29:15;;;;;;;2.95;1.30;;;24.90;99.90;;;;;;5044029;28;20244;-86
2022/05/12 09:31:44;;;;;;;4.22;1.98;;;24.80;99.90;;;;;;5031924;28;20648;-86
2022/05/12 09:34:20;;;;;;;5.35;1.20;;;25.00;99.90;;;;;;5031055;28;20211;-86
2022/05/12 09:36:47;;;;;;;3.58;1.40;;;25.00;99.90;;;;;;5046862;28;20209;-85
2022/05/12 09:39:34;;;;;;;3.47;1.60;;;24.80;99.90;;;;;;5051678;28;20260;-85
2022/05/12 09:42:04;;;;;;;4.35;1.60;;;24.70;99.90;;;;;;5034280;28;20218;-86
2022/05/12 09:44:34;;;;;;;3.15;1.25;;;24.70;99.90;;;;;;5032364;28;20313;-84
2022/05/12 09:47:06;;;;;;;6.05;1.75;;;24.80;99.90;;;;;;5032638;28;20587;-86
2022/05/12 09:49:38;;;;;;;5.68;1.60;;;24.70;99.90;;;;;;5031620;28;20923;-85
2022/05/12 09:52:28;;;;;;;5.95;1.42;;;24.70;99.90;;;;;;5030753;28;20215;-82
2022/05/12 09:55:13;;;;;;;5.50;1.60;;;24.80;99.90;;;;;;5038102;28;20221;-84
2022/05/12 09:57:47;;;;;;;3.65;1.48;;;24.60;99.90;;;;;;5051528;28;20205;-86
2022/05/12 10:00:33;;;;;;;4.78;2.28;;;24.40;99.90;;;;;;5044258;28;20206;-86
2022/05/12 10:08:44;;;;;;;6.20;1.48;;;24.60;99.90;;;;;;5029001;28;20295;-85
2022/05/12 10:11:14;;;;;;;2.80;1.30;;;24.60;99.90;;;;;;5030561;28;20237;-84
2022/05/12 10:13:45;;;;;;;4.75;1.52;;;24.70;99.90;;;;;;5029624;28;20235;-83
2022/05/12 10:16:18;;;;;;;5.65;1.30;;;24.80;99.90;;;;;;5030898;28;20230;-86
2022/05/12 10:18:48;;;;;;;5.07;1.52;;;24.90;99.90;;;;;;5046376;28;20213;-86
2022/05/12 10:21:20;;;;;;;3.28;1.60;;;24.90;99.90;;;;;;5050618;28;20236;-86
2022/05/12 10:23:58;;;;;;;3.35;1.50;;;24.60;99.90;;;;;;5049123;28;20220;-82
2022/05/12 10:26:32;;;;;;;3.55;1.20;;;24.70;99.90;;;;;;5046397;28;20205;-86
2022/05/12 10:29:06;;;;;;;4.63;1.17;;;24.50;99.90;;;;;;5029577;28;20226;-86
2022/05/12 10:31:42;;;;;;;4.43;1.63;;;24.50;99.90;;;;;;5030188;28;20207;-86
2022/05/12 10:34:24;;;;;;;5.05;1.50;;;24.50;99.90;;;;;;5047882;28;20293;-85
2022/05/12 10:37:01;;;;;;;6.82;1.45;;;24.50;99.90;;;;;;5051121;28;20206;-83
2022/05/12 10:39:35;;;;;;;3.20;1.40;;;24.50;99.90;;;;;;5049019;28;20197;-86
2022/05/12 10:42:17;;;;;;;4.72;1.33;;;24.30;99.90;;;;;;5030373;28;20218;-85
2022/05/12 10:45:00;;;;;;;4.38;1.40;;;24.40;99.90;;;;;;5042159;28;20296;-85
2022/05/12 10:47:41;;;;;;;5.00;1.30;;;24.30;99.90;;;;;;5051284;28;20206;-84
2022/05/12 10:50:18;;;;;;;2.97;1.25;;;24.40;99.90;;;;;;5048792;28;20237;-83
2022/05/12 10:52:52;;;;;;;6.40;1.70;;;24.30;99.90;;;;;;5032025;28;20194;-86
2022/05/12 10:55:26;;;;;;;3.78;1.70;;;24.30;99.90;;;;;;5031310;28;20199;-85
2022/05/12 10:58:03;;;;;;;3.20;1.30;;;24.20;99.90;;;;;;5031773;28;20243;-86
2022/05/12 11:00:55;;;;;;;5.57;1.48;;;24.30;99.90;;;;;;5030923;28;20217;-87
2022/05/12 11:03:25;;;;;;;3.35;1.08;;;24.30;99.90;;;;;;5038846;28;20214;-84
2022/05/12 11:05:57;;;;;;;1.48;0.98;;;24.30;99.90;;;;;;5052630;28;20625;-84
2022/05/12 11:08:29;;;;;;;4.72;1.38;;;24.50;99.90;;;;;;5051706;28;20209;-90
2022/05/12 11:11:00;;;;;;;2.35;1.02;;;24.50;99.90;;;;;;5051733;28;20209;-86
2022/05/12 11:13:32;;;;;;;5.10;2.03;;;24.50;99.90;;;;;;5057785;28;20194;-84
2022/05/12 11:16:02;;;;;;;3.22;1.58;;;24.50;99.90;;;;;;5061319;28;20241;-86
2022/05/12 11:18:36;;;;;;;3.47;1.50;;;24.30;99.90;;;;;;5051093;28;20202;-83
2022/05/12 11:21:11;;;;;;;3.00;1.40;;;24.40;99.90;;;;;;5048867;28;20206;-81
2022/05/12 11:23:47;;;;;;;2.95;1.70;;;24.30;99.90;;;;;;5039667;28;20206;-85
2022/05/12 11:26:27;;;;;;;3.88;1.30;;;24.40;99.90;;;;;;5029668;28;20202;-79
2022/05/12 11:31:49;;;;;;;3.45;1.05;;;24.20;99.90;;;;;;5044644;28;20645;-84
2022/05/12 11:34:23;;;;;;;3.97;1.40;;;24.30;99.90;;;;;;5046249;28;20580;-80
2022/05/12 11:36:52;;;;;;;3.25;1.67;;;24.20;99.90;;;;;;5047352;28;20220;-81
2022/05/12 11:39:26;;;;;;;3.05;1.33;;;24.30;99.90;;;;;;5046686;28;20221;-81
2022/05/12 11:42:18;;;;;;;3.78;1.42;;;24.30;99.90;;;;;;5046847;28;20647;-84
2022/05/12 11:44:54;;;;;;;5.15;1.50;;;24.30;99.90;;;;;;5022927;28;20202;-87
2022/05/12 11:47:48;;;;;;;4.47;1.70;;;24.20;99.90;;;;;;5046109;28;20201;-81
2022/05/12 11:50:56;;;;;;;5.65;1.20;;;24.40;99.90;;;;;;5035207;28;20226;-82
2022/05/12 11:53:25;;;;;;;3.58;1.55;;;24.40;99.90;;;;;;5025177;28;20228;-83
2022/05/12 11:56:01;;;;;;;3.03;1.05;;;24.40;99.90;;;;;;5028904;28;20219;-84
2022/05/12 11:58:35;;;;;;;2.75;1.02;;;24.50;99.90;;;;;;5029723;28;20190;-84
2022/05/12 12:01:04;;;;;;;5.28;2.03;;;24.40;99.90;;;;;;5029244;28;20222;-86
2022/05/12 12:03:52;;;;;;;3.08;1.10;;;24.30;99.90;;;;;;5029056;28;20229;-84
2022/05/12 12:06:43;;;;;;;3.45;1.30;;;24.30;99.90;;;;;;5029131;28;20595;-84
2022/05/12 12:09:47;;;;;;;5.05;1.50;;;24.30;99.90;;;;;;5028611;28;20515;-84
2022/05/12 12:13:00;;;;;;;3.08;1.05;;;24.50;99.90;;;;;;5028229;28;20288;-86
2022/05/12 12:15:43;;;;;;;3.17;1.17;;;24.50;99.90;;;;;;5029014;28;20492;-84
2022/05/12 12:18:56;;;;;;;3.70;1.13;;;24.40;99.90;;;;;;5027150;28;20279;-84
2022/05/12 12:22:11;;;;;;;2.55;0.90;;;24.20;99.90;;;;;;5025295;28;20602;-83
2022/05/12 12:25:17;;;;;;;3.80;1.05;;;24.30;99.90;;;;;;5026417;28;20210;-81
2022/05/12 12:28:11;;;;;;;3.40;1.25;;;24.30;99.90;;;;;;5026158;28;20206;-84
2022/05/12 12:30:55;;;;;;;3.95;1.60;;;24.00;99.90;;;;;;5046702;28;20229;-83
2022/05/12 12:33:40;;;;;;;5.10;1.25;;;24.00;99.90;;;;;;5026810;28;20819;-83
2022/05/12 12:36:28;;;;;;;4.05;0.93;;;24.10;99.90;;;;;;5041246;28;20520;-82
2022/05/12 12:39:06;;;;;;;4.85;1.15;;;24.10;99.90;;;;;;5031235;28;20211;-83
2022/05/12 12:41:43;;;;;;;3.53;1.20;;;23.80;99.90;;;;;;5026224;28;20213;-88
2022/05/12 12:44:17;;;;;;;2.63;1.38;;;23.70;99.90;;;;;;5027921;28;20214;-85
2022/05/12 12:47:12;;;;;;;2.00;0.70;;;23.50;99.90;;;;;;5027900;28;20253;-84
2022/05/12 12:49:50;;;;;;;3.30;1.00;;;23.70;99.90;;;;;;5038890;28;20229;-87
2022/05/12 12:52:19;;;;;;;3.85;1.20;;;23.60;99.90;;;;;;5047874;28;20206;-84
2022/05/12 12:57:46;;;;;;;4.78;1.50;;;23.50;99.90;;;;;;5034220;28;20198;-83
2022/05/12 13:00:24;;;;;;;3.13;1.25;;;23.20;99.90;;;;;;5026191;28;20700;-84
2022/05/12 13:02:57;;;;;;;5.80;1.10;;;23.20;99.90;;;;;;5029673;28;20206;-83
2022/05/12 13:05:24;;;;;;;4.53;1.30;;;23.10;99.90;;;;;;5030683;28;20209;-85
2022/05/12 13:07:55;;;;;;;7.53;1.00;;;23.00;99.90;;;;;;5030390;28;20213;-86
2022/05/12 13:10:22;;;;;;;4.57;1.30;;;22.90;99.90;;;;;;5028980;28;20226;-82
2022/05/12 13:12:55;;;;;;;3.00;1.25;;;23.00;99.90;;;;;;5029491;28;20202;-82
2022/05/12 13:15:24;;;;;;;3.08;1.00;;;23.10;99.90;;;;;;5027923;28;20658;-81
2022/05/12 13:17:56;;;;;;;2.65;1.02;;;23.10;99.90;;;;;;5027333;28;20194;-81
2022/05/12 13:20:26;;;;;;;5.10;1.15;;;23.20;99.90;;;;;;5027488;28;20211;-83
2022/05/12 13:22:57;;;;;;;3.65;1.50;;;23.20;99.90;;;;;;5045966;28;20198;-82
2022/05/12 13:25:29;;;;;;;4.65;1.50;;;23.30;99.90;;;;;;5048050;28;20194;-80
2022/05/12 13:27:58;;;;;;;3.33;1.08;;;23.10;99.90;;;;;;5027065;28;20226;-83
2022/05/12 13:30:28;;;;;;;10.68;1.30;;;23.10;99.90;;;;;;5027048;28;20214;-81
2022/05/12 13:33:02;;;;;;;5.63;1.63;;;22.90;99.90;;;;;;5028437;28;20238;-82